sensor_id;sensor_type;location;lat;lon;timestamp;pressure;altitude;pressure_sealevel;temperature;humidity
59043;BME280;44826;51.596;5.624;2024-01-30T06:59:09;102437.97;;;6.94;100.00
59043;BME280;44826;51.596;5.624;2024-01-30T07:01:34;102431.09;;;6.96;100.00
59043;BME280;44826;51.596;5.624;2024-01-30T07:04:25;102436.28;;;6.96;100.00
59043;BME280;44826;51.596;5.624;2024-01-30T07:06:53;102434.56;;;6.98;100.00
59043;BME280;44826;51.596;5.624;2024-01-30T07:09:18;102436.31;;;6.99;100.00
59043;BME280;44826;51.596;5.624;2024-01-30T07:11:54;102460.47;;;7.01;100.00
59043;BME280;44826;51.596;5.624;2024-01-30T07:14:20;102459.69;;;7.05;100.00
59043;BME280;44826;51.596;5.624;2024-01-30T07:16:46;102465.75;;;7.06;100.00
59043;BME280;44826;51.596;5.624;2024-01-30T07:19:11;102464.91;;;7.07;100.00
59043;BME280;44826;51.596;5.624;2024-01-30T07:21:39;102458.88;;;7.09;100.00
59043;BME280;44826;51.596;5.624;2024-01-30T07:24:05;102455.50;;;7.15;100.00
59043;BME280;44826;51.596;5.624;2024-01-30T07:26:31;102463.31;;;7.17;100.00
59043;BME280;44826;51.596;5.624;2024-01-30T07:28:56;102468.56;;;7.21;100.00
59043;BME280;44826;51.596;5.624;2024-01-30T07:31:24;102472.06;;;7.25;100.00
59043;BME280;44826;51.596;5.624;2024-01-30T07:33:50;102472.94;;;7.27;100.00
59043;BME280;44826;51.596;5.624;2024-01-30T07:36:15;102473.00;;;7.30;100.00
59043;BME280;44826;51.596;5.624;2024-01-30T07:38:40;102473.03;;;7.33;100.00
59043;BME280;44826;51.596;5.624;2024-01-30T07:41:06;102467.88;;;7.36;100.00
59043;BME280;44826;51.596;5.624;2024-01-30T07:43:31;102468.78;;;7.38;100.00
59043;BME280;44826;51.596;5.624;2024-01-30T07:45:59;102474.00;;;7.41;100.00
59043;BME280;44826;51.596;5.624;2024-01-30T07:48:26;102463.66;;;7.43;100.00
59043;BME280;44826;51.596;5.624;2024-01-30T07:50:52;102480.13;;;7.47;100.00
59043;BME280;44826;51.596;5.624;2024-01-30T07:53:18;102475.84;;;7.49;100.00
59043;BME280;44826;51.596;5.624;2024-01-30T07:55:44;102481.91;;;7.51;100.00
59043;BME280;44826;51.596;5.624;2024-01-30T07:58:13;102481.97;;;7.57;100.00
59043;BME280;44826;51.596;5.624;2024-01-30T08:00:38;102487.22;;;7.60;100.00
59043;BME280;44826;51.596;5.624;2024-01-30T08:03:04;102498.47;;;7.64;100.00
59043;BME280;44826;51.596;5.624;2024-01-30T08:05:30;102491.59;;;7.66;100.00
59043;BME280;44826;51.596;5.624;2024-01-30T08:07:55;102495.06;;;7.68;100.00
59043;BME280;44826;51.596;5.624;2024-01-30T08:10:21;102502.00;;;7.70;100.00
59043;BME280;44826;51.596;5.624;2024-01-30T08:12:46;102496.88;;;7.73;100.00
59043;BME280;44826;51.596;5.624;2024-01-30T08:15:11;102502.94;;;7.75;100.00
59043;BME280;44826;51.596;5.624;2024-01-30T08:17:38;102506.47;;;7.81;100.00
59043;BME280;44826;51.596;5.624;2024-01-30T08:20:06;102500.44;;;7.82;100.00
59043;BME280;44826;51.596;5.624;2024-01-30T08:22:33;102498.75;;;7.84;100.00
59043;BME280;44826;51.596;5.624;2024-01-30T08:24:59;102495.31;;;7.88;100.00
59043;BME280;44826;51.596;5.624;2024-01-30T08:27:24;102505.72;;;7.89;100.00
59043;BME280;44826;51.596;5.624;2024-01-30T08:29:49;102515.25;;;7.92;100.00
59043;BME280;44826;51.596;5.624;2024-01-30T08:32:15;102501.47;;;7.96;100.00
59043;BME280;44826;51.596;5.624;2024-01-30T08:34:41;102505.81;;;7.97;100.00
59043;BME280;44826;51.596;5.624;2024-01-30T08:37:09;102508.44;;;8.00;100.00
59043;BME280;44826;51.596;5.624;2024-01-30T08:39:37;102509.34;;;8.02;100.00
59043;BME280;44826;51.596;5.624;2024-01-30T08:42:03;102503.31;;;8.07;100.00
59043;BME280;44826;51.596;5.624;2024-01-30T08:44:28;102503.34;;;8.10;100.00
59043;BME280;44826;51.596;5.624;2024-01-30T08:46:53;102504.25;;;8.13;100.00
59043;BME280;44826;51.596;5.624;2024-01-30T08:49:20;102511.22;;;8.16;100.00
59043;BME280;44826;51.596;5.624;2024-01-30T08:51:45;102514.69;;;8.18;100.00
59043;BME280;44826;51.596;5.624;2024-01-30T08:54:11;102505.22;;;8.23;100.00
59043;BME280;44826;51.596;5.624;2024-01-30T08:56:36;102505.22;;;8.23;100.00
59043;BME280;44826;51.596;5.624;2024-01-30T08:59:01;102504.41;;;8.26;100.00
59043;BME280;44826;51.596;5.624;2024-01-30T09:01:27;102505.31;;;8.28;100.00
59043;BME280;44826;51.596;5.624;2024-01-30T09:03:53;102505.34;;;8.32;100.00
59043;BME280;44826;51.596;5.624;2024-01-30T09:06:18;102507.09;;;8.33;100.00
59043;BME280;44826;51.596;5.624;2024-01-30T10:00:49;102544.94;;;9.02;100.00
59043;BME280;44826;51.596;5.624;2024-01-30T10:03:17;102542.38;;;9.07;100.00
59043;BME280;44826;51.596;5.624;2024-01-30T10:11:51;102549.44;;;9.26;100.00
59043;BME280;44826;51.596;5.624;2024-01-30T10:14:24;102548.63;;;9.31;100.00
59043;BME280;44826;51.596;5.624;2024-01-30T10:16:58;102546.94;;;9.36;100.00
59043;BME280;44826;51.596;5.624;2024-01-30T10:34:06;102569.59;;;9.62;100.00
59043;BME280;44826;51.596;5.624;2024-01-30T10:44:29;102562.78;;;9.78;100.00
59043;BME280;44826;51.596;5.624;2024-01-30T10:47:21;102567.16;;;9.86;100.00
59043;BME280;44826;51.596;5.624;2024-01-30T10:50:40;102561.97;;;9.93;100.00
59043;BME280;44826;51.596;5.624;2024-01-30T10:53:08;102562.88;;;9.96;100.00
59043;BME280;44826;51.596;5.624;2024-01-30T11:09:05;102568.13;;;10.13;100.00
59043;BME280;44826;51.596;5.624;2024-01-30T11:15:37;102561.25;;;10.31;100.00
59043;BME280;44826;51.596;5.624;2024-01-30T11:18:35;102571.66;;;10.34;100.00
59043;BME280;44826;51.596;5.624;2024-01-30T11:21:41;102566.44;;;10.31;100.00
59043;BME280;44826;51.596;5.624;2024-01-30T11:24:28;102566.44;;;10.28;100.00
59043;BME280;44826;51.596;5.624;2024-01-30T11:51:13;102557.88;;;10.54;100.00
59043;BME280;44826;51.596;5.624;2024-01-30T12:02:50;102572.66;;;10.70;95.01
59043;BME280;44826;51.596;5.624;2024-01-30T12:05:26;102576.97;;;10.70;95.74
59043;BME280;44826;51.596;5.624;2024-01-30T12:08:19;102582.22;;;10.71;92.16
59043;BME280;44826;51.596;5.624;2024-01-30T12:11:06;102575.25;;;10.69;89.62
59043;BME280;44826;51.596;5.624;2024-01-30T12:13:32;102572.66;;;10.70;89.28
59043;BME280;44826;51.596;5.624;2024-01-30T12:15:57;102572.66;;;10.73;89.82
59043;BME280;44826;51.596;5.624;2024-01-30T12:18:43;102585.69;;;10.75;91.63
59043;BME280;44826;51.596;5.624;2024-01-30T12:24:39;102583.03;;;10.61;89.77
59043;BME280;44826;51.596;5.624;2024-01-30T12:27:23;102589.13;;;10.58;91.04
59043;BME280;44826;51.596;5.624;2024-01-30T12:29:55;102587.38;;;10.53;90.23
59043;BME280;44826;51.596;5.624;2024-01-30T12:33:00;102598.66;;;10.50;91.18
59043;BME280;44826;51.596;5.624;2024-01-30T12:35:53;102596.00;;;10.45;87.61
59043;BME280;44826;51.596;5.624;2024-01-30T12:38:22;102609.03;;;10.39;87.39
59043;BME280;44826;51.596;5.624;2024-01-30T12:48:49;102613.25;;;10.25;85.50
59043;BME280;44826;51.596;5.624;2024-01-30T12:51:14;102615.84;;;10.28;85.03
59043;BME280;44826;51.596;5.624;2024-01-30T13:00:44;102624.75;;;10.83;83.17
59043;BME280;44826;51.596;5.624;2024-01-30T13:03:30;102627.34;;;10.90;81.75
59043;BME280;44826;51.596;5.624;2024-01-30T13:17:14;102633.41;;;10.78;77.89
59043;BME280;44826;51.596;5.624;2024-01-30T13:20:02;102637.75;;;10.73;76.63
59043;BME280;44826;51.596;5.624;2024-01-30T13:22:58;102642.94;;;10.66;76.39
59043;BME280;44826;51.596;5.624;2024-01-30T13:25:36;102646.38;;;10.63;75.31
59043;BME280;44826;51.596;5.624;2024-01-30T13:28:41;102654.16;;;10.54;74.15
59043;BME280;44826;51.596;5.624;2024-01-30T13:31:06;102655.91;;;10.52;73.69
59043;BME280;44826;51.596;5.624;2024-01-30T13:34:21;102655.03;;;10.54;76.71
59043;BME280;44826;51.596;5.624;2024-01-30T13:37:07;102659.34;;;10.51;73.81
59043;BME280;44826;51.596;5.624;2024-01-30T15:29:52;102780.59;;;8.00;95.75
59043;BME280;44826;51.596;5.624;2024-01-30T15:56:00;102822.84;;;7.96;94.35
59043;BME280;44826;51.596;5.624;2024-01-30T15:58:40;102827.16;;;7.96;94.19
59043;BME280;44826;51.596;5.624;2024-01-30T16:01:09;102840.16;;;7.97;93.82
59043;BME280;44826;51.596;5.624;2024-01-30T16:03:34;102835.75;;;7.93;94.08
59043;BME280;44826;51.596;5.624;2024-01-30T16:06:19;102850.41;;;7.91;93.19
59043;BME280;44826;51.596;5.624;2024-01-30T16:08:44;102860.78;;;7.91;93.13
59043;BME280;44826;51.596;5.624;2024-01-30T16:14:23;102865.03;;;7.87;93.25
59043;BME280;44826;51.596;5.624;2024-01-30T16:17:16;102862.41;;;7.86;93.43
59043;BME280;44826;51.596;5.624;2024-01-30T16:20:10;102871.91;;;7.85;93.58
59043;BME280;44826;51.596;5.624;2024-01-30T16:23:05;102877.03;;;7.82;93.97
59043;BME280;44826;51.596;5.624;2024-01-30T16:29:14;102883.88;;;7.80;95.20
59043;BME280;44826;51.596;5.624;2024-01-30T16:42:55;102901.72;;;7.65;97.75
59043;BME280;44826;51.596;5.624;2024-01-30T16:45:21;102901.66;;;7.60;98.29
59043;BME280;44826;51.596;5.624;2024-01-30T16:51:23;102907.53;;;7.53;98.60
59043;BME280;44826;51.596;5.624;2024-01-30T16:54:08;102920.50;;;7.53;98.83
59043;BME280;44826;51.596;5.624;2024-01-30T16:56:34;102913.53;;;7.49;98.69
59043;BME280;44826;51.596;5.624;2024-01-30T16:58:59;102915.28;;;7.50;99.26
59043;BME280;44826;51.596;5.624;2024-01-30T17:01:52;102923.81;;;7.46;100.00
59043;BME280;44826;51.596;5.624;2024-01-30T17:04:20;102933.28;;;7.45;100.00
59043;BME280;44826;51.596;5.624;2024-01-30T17:22:29;102955.34;;;7.27;100.00
59043;BME280;44826;51.596;5.624;2024-01-30T17:24:55;102955.31;;;7.26;100.00
59043;BME280;44826;51.596;5.624;2024-01-30T17:35:33;102965.44;;;7.15;100.00
59043;BME280;44826;51.596;5.624;2024-01-30T17:38:26;102969.75;;;7.14;100.00
59043;BME280;44826;51.596;5.624;2024-01-30T17:41:12;102976.59;;;7.12;100.00
59043;BME280;44826;51.596;5.624;2024-01-30T17:58:51;102992.91;;;7.10;100.00
59043;BME280;44826;51.596;5.624;2024-01-30T18:01:47;102998.06;;;7.08;100.00
59043;BME280;44826;51.596;5.624;2024-01-30T18:04:52;102998.88;;;7.06;100.00
59043;BME280;44826;51.596;5.624;2024-01-30T18:07:18;103008.31;;;7.04;100.00
59043;BME280;44826;51.596;5.624;2024-01-30T18:10:01;103015.19;;;7.03;100.00
59043;BME280;44826;51.596;5.624;2024-01-30T18:12:36;103021.28;;;7.05;100.00
59043;BME280;44826;51.596;5.624;2024-01-30T18:17:34;103024.63;;;7.01;100.00
59043;BME280;44826;51.596;5.624;2024-01-30T18:19:59;103024.63;;;7.01;100.00
59043;BME280;44826;51.596;5.624;2024-01-30T18:22:25;103032.38;;;7.01;100.00
59043;BME280;44826;51.596;5.624;2024-01-30T18:24:50;103021.16;;;6.99;100.00
59043;BME280;44826;51.596;5.624;2024-01-30T18:27:15;103034.94;;;6.98;100.00
59043;BME280;44826;51.596;5.624;2024-01-30T18:29:51;103037.47;;;6.96;100.00
59043;BME280;44826;51.596;5.624;2024-01-30T18:32:19;103027.91;;;6.94;100.00
59043;BME280;44826;51.596;5.624;2024-01-30T18:35:02;103037.44;;;6.95;100.00
59043;BME280;44826;51.596;5.624;2024-01-30T18:37:29;103037.34;;;6.92;100.00
59043;BME280;44826;51.596;5.624;2024-01-30T18:39:55;103042.56;;;6.93;100.00
59043;BME280;44826;51.596;5.624;2024-01-30T18:42:58;103033.91;;;6.91;100.00
59043;BME280;44826;51.596;5.624;2024-01-30T18:45:28;103041.59;;;6.90;100.00
59043;BME280;44826;51.596;5.624;2024-01-30T18:48:16;103043.28;;;6.88;100.00
59043;BME280;44826;51.596;5.624;2024-01-30T20:25:39;103133.28;;;6.66;100.00
59043;BME280;44826;51.596;5.624;2024-01-30T20:41:04;103165.16;;;6.65;100.00
59043;BME280;44826;51.596;5.624;2024-01-30T21:11:20;103192.78;;;6.66;100.00
59043;BME280;44826;51.596;5.624;2024-01-30T21:13:49;103182.44;;;6.66;100.00
59043;BME280;44826;51.596;5.624;2024-01-30T21:22:55;103191.63;;;6.56;100.00
59043;BME280;44826;51.596;5.624;2024-01-30T21:28:00;103194.03;;;6.50;100.00
59043;BME280;44826;51.596;5.624;2024-01-30T21:35:39;103212.72;;;6.41;100.00
59043;BME280;44826;51.596;5.624;2024-01-30T21:38:27;103215.28;;;6.40;100.00
59043;BME280;44826;51.596;5.624;2024-01-30T21:48:00;103216.00;;;6.35;100.00
59043;BME280;44826;51.596;5.624;2024-01-30T21:50:26;103216.03;;;6.37;100.00
59043;BME280;44826;51.596;5.624;2024-01-30T21:52:57;103218.53;;;6.34;100.00
59043;BME280;44826;51.596;5.624;2024-01-30T21:55:51;103222.00;;;6.34;100.00
59043;BME280;44826;51.596;5.624;2024-01-30T21:58:26;103229.81;;;6.36;100.00
59043;BME280;44826;51.596;5.624;2024-01-30T22:01:14;103237.56;;;6.36;100.00
59043;BME280;44826;51.596;5.624;2024-01-30T22:03:42;103240.03;;;6.33;100.00
59043;BME280;44826;51.596;5.624;2024-01-30T22:34:50;103252.97;;;6.33;100.00
59043;BME280;44826;51.596;5.624;2024-01-30T22:37:54;103252.00;;;6.29;100.00
59043;BME280;44826;51.596;5.624;2024-01-30T22:40:41;103259.75;;;6.29;100.00
59043;BME280;44826;51.596;5.624;2024-01-30T22:43:22;103266.66;;;6.29;100.00
59043;BME280;44826;51.596;5.624;2024-01-30T22:45:59;103270.91;;;6.27;100.00
59043;BME280;44826;51.596;5.624;2024-01-30T22:48:35;103263.97;;;6.26;100.00
59043;BME280;44826;51.596;5.624;2024-01-30T22:51:11;103262.94;;;6.20;100.00
59043;BME280;44826;51.596;5.624;2024-01-30T22:53:37;103268.94;;;6.19;100.00
59043;BME280;44826;51.596;5.624;2024-01-30T22:59:25;103276.66;;;6.18;100.00
59043;BME280;44826;51.596;5.624;2024-01-30T23:11:55;103283.22;;;6.08;100.00
59043;BME280;44826;51.596;5.624;2024-01-30T23:14:49;103285.81;;;6.08;100.00
59043;BME280;44826;51.596;5.624;2024-01-30T23:17:42;103288.44;;;6.10;100.00
59043;BME280;44826;51.596;5.624;2024-01-30T23:20:38;103290.06;;;6.06;100.00
59043;BME280;44826;51.596;5.624;2024-01-30T23:23:21;103287.47;;;6.06;100.00
59043;BME280;44826;51.596;5.624;2024-01-30T23:25:57;103289.22;;;6.07;100.00
59043;BME280;44826;51.596;5.624;2024-01-30T23:28:45;103291.81;;;6.07;100.00
59043;BME280;44826;51.596;5.624;2024-01-30T23:37:29;103302.19;;;6.08;100.00
59043;BME280;44826;51.596;5.624;2024-01-30T23:44:09;103307.34;;;6.08;100.00
59043;BME280;44826;51.596;5.624;2024-01-30T23:46:53;103306.28;;;6.02;100.00
59043;BME280;44826;51.596;5.624;2024-01-30T23:56:12;103302.44;;;5.90;100.00
59043;BME280;44826;51.596;5.624;2024-01-30T23:58:58;103298.88;;;5.87;100.00
